createdAt,value
2022-09-20T00:04:16.019Z,10.99
2022-09-20T00:09:17.677Z,11.03
2022-09-20T00:14:19.334Z,11.05
2022-09-20T00:19:22.028Z,10.99
2022-09-20T00:24:23.686Z,10.99
2022-09-20T00:29:25.600Z,11.00
2022-09-20T00:34:45.741Z,10.92
2022-09-20T00:39:47.694Z,10.87
2022-09-20T00:45:07.342Z,10.85
2022-09-20T00:50:28.662Z,10.85
2022-09-20T00:55:31.079Z,10.86
2022-09-20T01:00:33.112Z,10.95
2022-09-20T01:05:36.461Z,10.98
2022-09-20T01:10:38.941Z,11.00
2022-09-20T01:15:44.509Z,11.04
2022-09-20T01:20:48.340Z,11.03
2022-09-20T01:26:27.278Z,11.06
2022-09-20T01:31:33.900Z,11.10
2022-09-20T01:36:54.317Z,11.13
2022-09-20T01:41:59.951Z,11.08
2022-09-20T01:47:11.074Z,11.09
2022-09-20T01:52:43.801Z,11.15
2022-09-20T01:58:04.161Z,11.10
2022-09-20T02:03:08.615Z,10.99
2022-09-20T02:08:33.489Z,10.91
2022-09-20T02:13:40.953Z,10.83
2022-09-20T02:19:15.962Z,10.79
2022-09-20T02:24:36.433Z,10.67
2022-09-20T02:29:53.257Z,10.72
2022-09-20T02:35:19.501Z,10.69
2022-09-20T02:40:51.382Z,10.64
2022-09-20T02:46:02.933Z,10.54
2022-09-20T02:51:35.560Z,10.54
2022-09-20T02:56:55.533Z,10.48
2022-09-20T03:02:18.313Z,10.48
2022-09-20T03:07:22.657Z,10.47
2022-09-20T03:12:49.631Z,10.43
2022-09-20T03:18:06.383Z,10.47
2022-09-20T03:23:43.918Z,10.50
2022-09-20T03:28:57.933Z,10.58
2022-09-20T03:34:30.481Z,10.60
2022-09-20T03:39:32.079Z,10.68
2022-09-20T03:44:51.339Z,10.73
2022-09-20T03:50:17.433Z,10.77
2022-09-20T03:55:54.210Z,10.76
2022-09-20T04:01:08.051Z,10.75
2022-09-20T04:06:40.758Z,10.72
2022-09-20T04:12:19.975Z,10.71
2022-09-20T04:17:42.900Z,10.72
2022-09-20T04:22:46.214Z,10.79
2022-09-20T04:27:55.042Z,10.88
2022-09-20T04:33:14.994Z,10.89
2022-09-20T04:38:19.403Z,10.89
2022-09-20T04:43:36.194Z,10.71
2022-09-20T04:48:52.372Z,10.74
2022-09-20T04:54:18.704Z,10.74
2022-09-20T04:59:54.794Z,10.71
2022-09-20T05:05:18.302Z,10.69
2022-09-20T05:10:25.862Z,10.78
2022-09-20T05:15:39.395Z,10.83
2022-09-20T05:20:49.695Z,10.87
2022-09-20T05:26:08.078Z,10.85
2022-09-20T05:31:38.094Z,10.70
2022-09-20T05:36:51.909Z,10.69
2022-09-20T05:42:24.622Z,10.71
2022-09-20T05:47:49.906Z,10.69
2022-09-20T05:53:19.799Z,10.68
2022-09-20T05:58:49.633Z,10.76
2022-09-20T06:04:00.693Z,10.77
2022-09-20T06:09:29.957Z,10.79
2022-09-20T06:14:39.340Z,10.83
2022-09-20T06:20:10.420Z,10.82
2022-09-20T06:25:57.259Z,10.80
2022-09-20T06:30:59.028Z,10.81
2022-09-20T06:36:28.368Z,10.80
2022-09-20T06:41:34.662Z,10.85
2022-09-20T06:46:41.589Z,10.82
2022-09-20T06:51:43.432Z,10.93
2022-09-20T06:56:46.823Z,10.98
2022-09-20T07:01:48.616Z,11.11
2022-09-20T07:06:51.062Z,11.20
2022-09-20T07:11:52.716Z,11.25
2022-09-20T07:16:54.731Z,11.26
2022-09-20T07:21:56.809Z,11.26
2022-09-20T07:27:01.386Z,11.24
2022-09-20T07:32:03.722Z,11.29
2022-09-20T07:37:05.551Z,11.20
2022-09-20T07:42:07.411Z,11.23
2022-09-20T07:47:11.106Z,11.30
2022-09-20T07:52:14.657Z,11.30
2022-09-20T07:57:16.898Z,11.36
2022-09-20T08:02:18.848Z,11.52
2022-09-20T08:07:21.074Z,11.69
2022-09-20T08:17:47.330Z,11.60
2022-09-20T08:23:06.238Z,11.79
2022-09-20T08:28:10.988Z,11.92
2022-09-20T08:33:12.887Z,12.16
2022-09-20T08:43:45.492Z,12.33
2022-09-20T08:48:47.462Z,12.23
2022-09-20T08:53:54.246Z,12.26
2022-09-20T08:58:58.437Z,12.19
2022-09-20T09:04:23.490Z,12.32
2022-09-20T09:09:27.490Z,12.74
2022-09-20T09:14:51.030Z,12.64
2022-09-20T09:19:58.440Z,12.37
2022-09-20T09:25:34.580Z,12.62
2022-09-20T09:30:39.282Z,12.70
2022-09-20T09:35:42.182Z,12.57
2022-09-20T09:40:52.168Z,12.46
2022-09-20T09:45:55.509Z,12.40
2022-09-20T09:51:15.653Z,12.77
2022-09-20T09:56:38.953Z,13.06
2022-09-20T10:01:52.081Z,13.20
2022-09-20T10:07:06.263Z,13.56
2022-09-20T10:12:32.391Z,13.44
2022-09-20T10:17:45.170Z,12.92
2022-09-20T10:23:39.253Z,12.75
2022-09-20T10:28:57.463Z,13.02
2022-09-20T10:34:08.219Z,13.34
2022-09-20T10:39:26.963Z,13.74
2022-09-20T10:45:00.176Z,13.84
2022-09-20T10:50:17.034Z,13.90
2022-09-20T10:55:39.186Z,14.31
2022-09-20T11:00:52.709Z,14.51
2022-09-20T11:06:06.498Z,14.24
2022-09-20T11:11:20.322Z,14.57
2022-09-20T11:16:29.279Z,14.40
2022-09-20T11:21:47.076Z,14.35
2022-09-20T11:26:56.986Z,14.76
2022-09-20T11:32:28.458Z,14.45
2022-09-20T11:37:33.865Z,14.41
2022-09-20T11:42:38.466Z,14.43
2022-09-20T11:47:55.234Z,14.99
2022-09-20T11:53:26.433Z,14.92
2022-09-20T11:58:28.466Z,15.03
2022-09-20T12:03:40.076Z,14.43
2022-09-20T12:08:42.132Z,14.13
2022-09-20T12:13:55.434Z,14.20
2022-09-20T12:19:03.850Z,14.35
2022-09-20T12:24:29.853Z,14.67
2022-09-20T12:29:32.557Z,14.51
2022-09-20T12:34:36.991Z,13.84
2022-09-20T12:39:39.997Z,13.45
2022-09-20T12:44:45.661Z,13.48
2022-09-20T12:50:06.007Z,13.70
2022-09-20T12:55:11.300Z,13.86
2022-09-20T13:00:41.881Z,13.69
2022-09-20T13:05:47.036Z,13.52
2022-09-20T13:11:07.089Z,13.70
2022-09-20T13:16:38.506Z,13.81
2022-09-20T13:21:47.337Z,13.93
2022-09-20T13:26:52.001Z,14.00
2022-09-20T13:31:56.385Z,13.88
2022-09-20T13:36:59.078Z,13.68
2022-09-20T13:42:06.915Z,13.25
2022-09-20T13:47:23.198Z,13.00
2022-09-20T13:52:30.929Z,12.91
2022-09-20T13:57:32.625Z,12.97
2022-09-20T14:02:34.358Z,13.11
2022-09-20T14:07:36.791Z,13.01
2022-09-20T14:12:38.787Z,12.87
2022-09-20T14:17:40.496Z,12.70
2022-09-20T14:22:43.880Z,12.73
2022-09-20T14:27:45.881Z,12.82
2022-09-20T14:32:54.348Z,12.95
2022-09-20T14:38:08.616Z,13.07
2022-09-20T14:43:25.568Z,13.03
2022-09-20T14:48:32.808Z,12.88
2022-09-20T14:53:37.132Z,12.94
2022-09-20T14:59:16.619Z,12.94
2022-09-20T15:04:23.541Z,12.86
2022-09-20T15:09:25.266Z,13.06
2022-09-20T15:14:26.978Z,13.69
2022-09-20T15:19:30.425Z,13.87
2022-09-20T15:24:32.077Z,13.68
2022-09-20T15:29:33.886Z,13.63
2022-09-20T15:34:35.635Z,13.90
2022-09-20T15:39:37.245Z,14.44
2022-09-20T15:44:38.913Z,14.18
2022-09-20T15:49:42.402Z,13.77
2022-09-20T15:54:44.082Z,13.85
2022-09-20T15:59:45.855Z,14.02
2022-09-20T16:04:47.923Z,14.18
2022-09-20T16:09:49.877Z,14.30
2022-09-20T16:14:51.453Z,14.61
2022-09-20T16:19:53.122Z,14.95
2022-09-20T16:24:55.660Z,14.80
2022-09-20T16:29:57.368Z,14.41
2022-09-20T16:35:01.138Z,14.21
2022-09-20T16:40:03.985Z,14.00
2022-09-20T16:45:06.954Z,13.75
2022-09-20T16:50:09.903Z,13.72
2022-09-20T16:55:13.037Z,13.65
2022-09-20T17:00:16.795Z,13.46
2022-09-20T17:05:18.432Z,13.24
2022-09-20T17:10:24.247Z,12.98
2022-09-20T17:15:25.890Z,12.88
2022-09-20T17:20:28.641Z,12.83
2022-09-20T17:25:30.349Z,12.76
2022-09-20T17:30:32.604Z,12.57
2022-09-20T17:35:34.231Z,12.45
2022-09-20T17:40:35.889Z,12.42
2022-09-20T17:45:37.593Z,12.48
2022-09-20T17:50:39.287Z,12.45
2022-09-20T17:55:40.971Z,12.07
2022-09-20T18:00:42.657Z,12.01
2022-09-20T18:05:44.421Z,11.87
2022-09-20T18:10:58.830Z,11.64
2022-09-20T18:16:00.511Z,11.67
2022-09-20T18:21:12.996Z,11.47
2022-09-20T18:26:23.224Z,11.20
2022-09-20T18:31:28.383Z,11.16
2022-09-20T18:36:31.949Z,11.19
2022-09-20T18:41:38.428Z,11.22
2022-09-20T18:46:40.746Z,11.00
2022-09-20T18:51:43.650Z,11.01
2022-09-20T18:56:47.433Z,11.13
2022-09-20T19:01:55.556Z,11.30
2022-09-20T19:07:24.443Z,11.47
2022-09-20T19:12:39.226Z,11.50
2022-09-20T19:18:04.013Z,11.53
2022-09-20T19:23:34.704Z,11.45
2022-09-20T19:28:36.763Z,11.36
2022-09-20T19:33:40.138Z,11.13
2022-09-20T19:39:07.747Z,10.84
2022-09-20T19:44:54.121Z,10.50
2022-09-20T19:50:33.118Z,10.45
2022-09-20T19:55:35.382Z,10.47
2022-09-20T20:00:37.744Z,10.47
2022-09-20T20:05:50.466Z,10.20
2022-09-20T20:11:13.926Z,10.12
2022-09-20T20:16:30.346Z,10.08
2022-09-20T20:21:58.491Z,9.81
2022-09-20T20:27:00.173Z,9.59
2022-09-20T20:32:02.269Z,9.51
2022-09-20T20:37:04.717Z,9.42
2022-09-20T20:42:06.607Z,9.38
2022-09-20T20:47:08.344Z,9.16
2022-09-20T20:52:10.014Z,8.96
2022-09-20T20:57:11.890Z,9.01
2022-09-20T21:02:13.686Z,9.04
2022-09-20T21:07:16.515Z,8.88
2022-09-20T21:12:18.620Z,9.05
2022-09-20T21:17:20.364Z,8.93
2022-09-20T21:22:22.214Z,8.74
2022-09-20T21:27:23.922Z,8.54
2022-09-20T21:32:25.667Z,8.69
2022-09-20T21:37:27.513Z,8.48
2022-09-20T21:42:29.475Z,8.54
2022-09-20T21:47:31.662Z,8.62
2022-09-20T21:52:33.263Z,8.65
2022-09-20T21:57:35.034Z,8.62
2022-09-20T22:02:36.718Z,8.70
2022-09-20T22:07:38.367Z,8.58
2022-09-20T22:12:40.015Z,8.37
2022-09-20T22:17:41.789Z,8.34
2022-09-20T22:22:43.357Z,8.15
2022-09-20T22:27:45.011Z,8.25
2022-09-20T22:32:46.661Z,8.24
2022-09-20T22:37:48.304Z,8.21
2022-09-20T22:42:49.989Z,8.26
2022-09-20T22:47:51.763Z,8.23
2022-09-20T22:52:53.454Z,7.91
2022-09-20T22:57:55.086Z,7.88
2022-09-20T23:02:59.579Z,7.91
2022-09-20T23:08:01.450Z,7.93
2022-09-20T23:13:03.004Z,7.89
2022-09-20T23:18:05.167Z,7.78
2022-09-20T23:23:06.897Z,7.71
2022-09-20T23:28:08.507Z,7.87
2022-09-20T23:33:10.396Z,7.81
2022-09-20T23:38:14.371Z,7.65
2022-09-20T23:43:16.142Z,7.57
2022-09-20T23:48:17.865Z,7.53
2022-09-20T23:53:19.682Z,7.57
2022-09-20T23:58:21.333Z,7.41
